Time;durP1;ratioP1;P1;durP2;ratioP2;P2;SDS_P1;SDS_P2;PMS_P1;PMS_P2;Temp;Humidity;BMP_temperature;BMP_pressure;BME280_temperature;BME280_humidity;BME280_pressure;Samples;Min_cycle;Max_cycle;Signal;HPM_P1;HPM_P2
2022/08/18 00:01:39;;;;;;;;;6.67;6.00;;;;;;;;5096633;27;45336;-74
2022/08/18 00:04:05;;;;;;;;;4.33;4.33;;;;;;;;5096439;27;45359;-74
2022/08/18 00:06:30;;;;;;;;;4.33;4.33;;;;;;;;5096197;27;45560;-74
2022/08/18 00:08:56;;;;;;;;;5.00;5.00;;;;;;;;5096820;27;45471;-74
2022/08/18 00:11:22;;;;;;;;;4.67;4.67;;;;;;;;5096713;27;45420;-74
2022/08/18 00:13:47;;;;;;;;;2.67;2.67;;;;;;;;5096411;27;45338;-73
2022/08/18 00:16:12;;;;;;;;;5.67;5.67;;;;;;;;5096582;27;45600;-74
2022/08/18 00:18:38;;;;;;;;;5.67;5.00;;;;;;;;5096548;27;45396;-74
2022/08/18 00:21:04;;;;;;;;;5.67;5.67;;;;;;;;5096348;27;45341;-74
2022/08/18 00:23:31;;;;;;;;;7.00;7.00;;;;;;;;5096741;27;45597;-73
2022/08/18 00:25:58;;;;;;;;;5.67;5.67;;;;;;;;5095851;27;46342;-74
2022/08/18 00:28:23;;;;;;;;;4.00;4.00;;;;;;;;5086775;27;45349;-73
2022/08/18 00:30:48;;;;;;;;;4.67;4.67;;;;;;;;5095935;27;45408;-74
2022/08/18 00:33:13;;;;;;;;;6.00;5.00;;;;;;;;5096550;27;45377;-74
2022/08/18 00:35:39;;;;;;;;;5.67;5.67;;;;;;;;5095708;27;46211;-73
2022/08/18 00:38:05;;;;;;;;;4.00;4.00;;;;;;;;5096156;27;45399;-74
2022/08/18 00:40:37;;;;;;;;;6.00;6.00;;;;;;;;5096343;27;45342;-74
2022/08/18 00:43:04;;;;;;;;;4.33;4.33;;;;;;;;5096085;27;45333;-74
2022/08/18 00:45:36;;;;;;;;;6.33;6.33;;;;;;;;5095687;27;46292;-74
2022/08/18 00:48:05;;;;;;;;;5.00;5.00;;;;;;;;5096059;27;45446;-74
2022/08/18 00:50:33;;;;;;;;;5.67;5.67;;;;;;;;5096323;27;45360;-73
2022/08/18 00:53:05;;;;;;;;;4.00;4.00;;;;;;;;5096167;27;45356;-74
2022/08/18 00:55:32;;;;;;;;;6.00;5.00;;;;;;;;5095950;27;46151;-73
2022/08/18 00:58:02;;;;;;;;;5.33;5.33;;;;;;;;5096214;27;45358;-73
2022/08/18 01:00:27;;;;;;;;;5.00;5.00;;;;;;;;5095931;27;45407;-74
2022/08/18 01:02:55;;;;;;;;;7.75;5.50;;;;;;;;5095684;27;45366;-74
2022/08/18 01:05:23;;;;;;;;;7.67;6.33;;;;;;;;5095431;27;47764;-74
2022/08/18 01:07:49;;;;;;;;;4.33;4.33;;;;;;;;5095856;27;45235;-74
2022/08/18 01:10:16;;;;;;;;;4.00;4.00;;;;;;;;5095726;27;45784;-74
2022/08/18 01:12:42;;;;;;;;;3.00;3.00;;;;;;;;5096162;27;45438;-73
2022/08/18 01:15:07;;;;;;;;;4.00;4.00;;;;;;;;5095670;27;45348;-74
2022/08/18 01:23:13;;;;;;;;;4.33;4.33;;;;;;;;5095717;27;45377;-74
2022/08/18 01:28:22;;;;;;;;;5.67;5.67;;;;;;;;5095641;27;45505;-74
2022/08/18 01:30:54;;;;;;;;;4.67;4.67;;;;;;;;5095747;27;45452;-74
2022/08/18 01:33:20;;;;;;;;;5.33;5.33;;;;;;;;5095267;27;45338;-74
2022/08/18 01:35:49;;;;;;;;;5.00;5.00;;;;;;;;5095188;27;46191;-74
2022/08/18 01:38:17;;;;;;;;;6.00;6.00;;;;;;;;5097008;27;45535;-74
2022/08/18 01:40:42;;;;;;;;;5.67;5.67;;;;;;;;5099049;27;45369;-74
2022/08/18 01:43:07;;;;;;;;;5.67;5.67;;;;;;;;5098466;27;45359;-74
2022/08/18 01:45:34;;;;;;;;;4.00;4.00;;;;;;;;5099049;27;46469;-74
2022/08/18 01:47:59;;;;;;;;;6.00;5.00;;;;;;;;5098836;27;45430;-74
2022/08/18 01:50:25;;;;;;;;;4.00;4.00;;;;;;;;5098819;27;45480;-74
2022/08/18 01:52:52;;;;;;;;;4.33;4.33;;;;;;;;5099335;27;45484;-75
2022/08/18 01:55:17;;;;;;;;;5.67;5.67;;;;;;;;5098541;27;47186;-74
2022/08/18 01:57:43;;;;;;;;;6.00;6.00;;;;;;;;5098718;27;45403;-74
2022/08/18 02:00:09;;;;;;;;;4.67;4.67;;;;;;;;5098632;27;45355;-74
2022/08/18 02:02:35;;;;;;;;;5.00;5.00;;;;;;;;5087857;27;45205;-74
2022/08/18 02:05:02;;;;;;;;;5.00;5.00;;;;;;;;5077843;27;45265;-74
2022/08/18 02:07:28;;;;;;;;;5.33;4.67;;;;;;;;5066175;27;45311;-74
2022/08/18 02:09:53;;;;;;;;;4.00;4.00;;;;;;;;5078581;27;45213;-74
2022/08/18 02:12:19;;;;;;;;;6.00;5.00;;;;;;;;5078012;27;45260;-73
2022/08/18 02:14:44;;;;;;;;;6.00;5.33;;;;;;;;5077926;27;45620;-74
2022/08/18 02:17:10;;;;;;;;;6.67;5.33;;;;;;;;5059541;27;45431;-74
2022/08/18 02:19:37;;;;;;;;;6.00;6.00;;;;;;;;5078337;27;45435;-74
2022/08/18 02:22:03;;;;;;;;;5.67;5.67;;;;;;;;5077645;27;45451;-75
2022/08/18 02:24:28;;;;;;;;;5.00;5.00;;;;;;;;5077896;27;46119;-74
2022/08/18 02:26:53;;;;;;;;;7.00;7.00;;;;;;;;5077948;27;45327;-74
2022/08/18 02:29:19;;;;;;;;;6.67;6.67;;;;;;;;5077903;27;45458;-74
2022/08/18 02:31:44;;;;;;;;;6.00;4.33;;;;;;;;5077336;27;45315;-74
2022/08/18 02:34:09;;;;;;;;;6.00;6.00;;;;;;;;5077587;27;46396;-74
2022/08/18 02:36:34;;;;;;;;;6.67;6.67;;;;;;;;5077651;27;45316;-74
2022/08/18 02:38:59;;;;;;;;;6.67;6.67;;;;;;;;5089243;27;45386;-74
2022/08/18 02:41:27;;;;;;;;;7.33;7.33;;;;;;;;5082026;27;45363;-73
2022/08/18 02:43:52;;;;;;;;;7.33;6.00;;;;;;;;5090057;27;46793;-73
2022/08/18 02:46:18;;;;;;;;;5.67;5.67;;;;;;;;5080837;27;45883;-74
2022/08/18 02:48:43;;;;;;;;;5.00;5.00;;;;;;;;5077605;27;45387;-74
2022/08/18 02:51:12;;;;;;;;;4.00;4.00;;;;;;;;5078083;27;45451;-73
2022/08/18 02:53:39;;;;;;;;;5.67;5.67;;;;;;;;5077229;27;47250;-74
2022/08/18 02:58:47;;;;;;;;;7.00;6.33;;;;;;;;5077441;27;45521;-74
2022/08/18 03:01:12;;;;;;;;;4.00;4.00;;;;;;;;5077267;27;45355;-75
2022/08/18 03:03:37;;;;;;;;;7.00;7.00;;;;;;;;5076805;27;46110;-74
2022/08/18 03:06:03;;;;;;;;;6.67;5.33;;;;;;;;5077565;27;45347;-75
2022/08/18 03:08:28;;;;;;;;;6.00;6.00;;;;;;;;5058612;27;45339;-74
2022/08/18 03:10:54;;;;;;;;;6.00;6.00;;;;;;;;5077219;27;45288;-74
2022/08/18 03:13:19;;;;;;;;;7.67;7.00;;;;;;;;5076934;27;47058;-74
2022/08/18 03:15:45;;;;;;;;;6.00;6.00;;;;;;;;5076968;27;45450;-74
2022/08/18 03:18:11;;;;;;;;;7.33;7.33;;;;;;;;5077251;28;45280;-74
2022/08/18 03:20:36;;;;;;;;;4.00;4.00;;;;;;;;5077497;27;45578;-74
2022/08/18 03:23:02;;;;;;;;;5.00;5.00;;;;;;;;5077059;27;46326;-73
2022/08/18 03:25:27;;;;;;;;;4.00;4.00;;;;;;;;5077124;27;45387;-73
2022/08/18 03:27:53;;;;;;;;;4.33;4.33;;;;;;;;5077588;27;45348;-74
2022/08/18 03:30:18;;;;;;;;;6.67;6.67;;;;;;;;5076819;27;45192;-73
2022/08/18 03:32:43;;;;;;;;;5.00;5.00;;;;;;;;5076637;27;46562;-73
2022/08/18 03:35:08;;;;;;;;;6.33;6.33;;;;;;;;5077011;27;45233;-73
2022/08/18 03:37:33;;;;;;;;;5.00;5.00;;;;;;;;5076983;27;45409;-73
2022/08/18 03:39:59;;;;;;;;;5.67;5.67;;;;;;;;5076888;28;45625;-73
2022/08/18 03:42:24;;;;;;;;;5.00;5.00;;;;;;;;5076066;28;45622;-73
2022/08/18 03:44:49;;;;;;;;;7.00;7.00;;;;;;;;5076187;27;45527;-73
2022/08/18 03:47:14;;;;;;;;;6.00;6.00;;;;;;;;5077041;27;45423;-73
2022/08/18 03:49:40;;;;;;;;;4.67;4.67;;;;;;;;5076905;27;45205;-73
2022/08/18 03:52:09;;;;;;;;;4.67;4.67;;;;;;;;5076535;27;45859;-74
2022/08/18 03:54:35;;;;;;;;;6.00;6.00;;;;;;;;5076794;27;45337;-73
2022/08/18 03:57:00;;;;;;;;;5.67;5.00;;;;;;;;5076639;27;45462;-73
2022/08/18 03:59:25;;;;;;;;;8.00;6.67;;;;;;;;5076144;27;45317;-73
2022/08/18 04:01:52;;;;;;;;;5.67;5.67;;;;;;;;5075448;27;46003;-73
2022/08/18 04:04:19;;;;;;;;;6.00;6.00;;;;;;;;5076563;27;45371;-74
2022/08/18 04:06:49;;;;;;;;;8.67;7.00;;;;;;;;5076103;27;45598;-75
2022/08/18 04:09:14;;;;;;;;;7.67;6.67;;;;;;;;5076352;27;45498;-73
2022/08/18 04:11:43;;;;;;;;;6.67;6.67;;;;;;;;5057925;28;48306;-74
2022/08/18 04:14:10;;;;;;;;;4.67;4.67;;;;;;;;5074929;27;45325;-74
2022/08/18 04:16:37;;;;;;;;;5.00;5.00;;;;;;;;5076515;27;45478;-74
2022/08/18 04:19:03;;;;;;;;;7.00;7.00;;;;;;;;5076104;27;45385;-74
2022/08/18 04:21:30;;;;;;;;;7.67;6.67;;;;;;;;5075707;28;47361;-75
2022/08/18 04:23:56;;;;;;;;;6.75;6.75;;;;;;;;5076027;27;45449;-73
2022/08/18 04:26:22;;;;;;;;;7.00;7.00;;;;;;;;5076237;28;45510;-74
2022/08/18 04:28:47;;;;;;;;;7.00;7.00;;;;;;;;5075935;27;45375;-73
2022/08/18 04:31:13;;;;;;;;;7.33;7.33;;;;;;;;5076111;28;46873;-73
2022/08/18 04:33:39;;;;;;;;;5.00;5.00;;;;;;;;5076082;28;45509;-73
2022/08/18 04:36:09;;;;;;;;;5.33;5.00;;;;;;;;5075912;27;45357;-74
2022/08/18 04:38:34;;;;;;;;;7.50;7.50;;;;;;;;5075947;27;45367;-73
2022/08/18 04:40:59;;;;;;;;;8.00;7.00;;;;;;;;5075796;27;46224;-73
2022/08/18 04:43:24;;;;;;;;;5.67;5.67;;;;;;;;5075237;27;45408;-74
2022/08/18 04:45:50;;;;;;;;;6.00;5.00;;;;;;;;5075943;27;45405;-73
2022/08/18 04:48:15;;;;;;;;;5.33;5.33;;;;;;;;5057699;28;45399;-73
2022/08/18 04:50:41;;;;;;;;;6.33;6.33;;;;;;;;5076004;28;46136;-73
2022/08/18 04:55:51;;;;;;;;;7.00;7.00;;;;;;;;5075663;28;45300;-74
2022/08/18 04:58:17;;;;;;;;;7.67;6.67;;;;;;;;5075091;27;45535;-74
2022/08/18 05:00:44;;;;;;;;;8.00;8.00;;;;;;;;5075289;28;46975;-74
2022/08/18 05:03:09;;;;;;;;;2.00;2.00;;;;;;;;5075605;27;45394;-74
2022/08/18 05:05:35;;;;;;;;;6.67;6.33;;;;;;;;5075620;28;45292;-74
2022/08/18 05:08:01;;;;;;;;;6.67;6.67;;;;;;;;5075502;27;45418;-73
2022/08/18 05:10:26;;;;;;;;;7.33;6.33;;;;;;;;5075280;27;46074;-74
2022/08/18 05:12:51;;;;;;;;;7.00;7.00;;;;;;;;5076255;28;45344;-74
2022/08/18 05:15:17;;;;;;;;;7.67;7.00;;;;;;;;5061003;27;45598;-74
2022/08/18 05:17:43;;;;;;;;;8.00;8.00;;;;;;;;5079401;27;45440;-73
2022/08/18 05:20:09;;;;;;;;;8.33;7.33;;;;;;;;5078768;27;46327;-74
2022/08/18 05:22:38;;;;;;;;;8.25;6.25;;;;;;;;5078666;27;45519;-74
2022/08/18 05:25:03;;;;;;;;;7.33;6.33;;;;;;;;5079279;27;45347;-74
2022/08/18 05:27:32;;;;;;;;;6.67;6.67;;;;;;;;5078411;27;45455;-74
2022/08/18 05:29:57;;;;;;;;;7.50;6.75;;;;;;;;5078915;27;46484;-74
2022/08/18 05:32:22;;;;;;;;;8.50;7.75;;;;;;;;5078709;27;45433;-74
2022/08/18 05:34:49;;;;;;;;;8.25;8.25;;;;;;;;5079018;27;45364;-74
2022/08/18 05:37:23;;;;;;;;;10.00;9.25;;;;;;;;5078390;27;45338;-74
2022/08/18 05:39:54;;;;;;;;;11.00;9.00;;;;;;;;5064317;27;45384;-74
2022/08/18 05:42:21;;;;;;;;;9.75;9.75;;;;;;;;5078686;27;45447;-73
2022/08/18 05:44:48;;;;;;;;;8.67;8.33;;;;;;;;5078514;27;45407;-74
2022/08/18 05:47:17;;;;;;;;;8.67;8.67;;;;;;;;5078436;27;45340;-74
2022/08/18 05:49:43;;;;;;;;;12.00;12.00;;;;;;;;5078558;27;47664;-74
2022/08/18 05:52:14;;;;;;;;;9.67;8.33;;;;;;;;5078284;27;45324;-74
2022/08/18 05:57:31;;;;;;;;;11.00;11.00;;;;;;;;5063276;27;45787;-75
2022/08/18 05:59:57;;;;;;;;;10.67;10.67;;;;;;;;5074647;27;47260;-74
2022/08/18 06:02:32;;;;;;;;;10.50;8.50;;;;;;;;5073171;27;45411;-77
2022/08/18 06:05:02;;;;;;;;;11.00;9.67;;;;;;;;5071380;28;45312;-74
2022/08/18 06:07:48;;;;;;;;;9.50;9.00;;;;;;;;5072755;27;45557;-79
2022/08/18 06:10:14;;;;;;;;;12.00;9.00;;;;;;;;5071688;27;46141;-74
2022/08/18 06:12:44;;;;;;;;;16.50;16.50;;;;;;;;5074147;27;45776;-73
2022/08/18 06:15:14;;;;;;;;;13.00;12.00;;;;;;;;5076461;27;45338;-74
2022/08/18 06:17:48;;;;;;;;;15.25;14.25;;;;;;;;5076837;27;45552;-74
2022/08/18 06:20:34;;;;;;;;;16.75;16.75;;;;;;;;5077363;27;45405;-73
2022/08/18 06:23:14;;;;;;;;;15.25;14.50;;;;;;;;5072340;27;45346;-73
2022/08/18 06:26:00;;;;;;;;;14.50;14.50;;;;;;;;5071570;27;45423;-74
2022/08/18 06:28:33;;;;;;;;;16.50;15.75;;;;;;;;5053690;27;45514;-74
2022/08/18 06:31:04;;;;;;;;;15.75;14.50;;;;;;;;5077169;27;46409;-74
2022/08/18 06:33:32;;;;;;;;;14.00;14.00;;;;;;;;5077703;27;45558;-73
2022/08/18 06:36:07;;;;;;;;;14.50;12.00;;;;;;;;5077553;27;45229;-75
2022/08/18 06:38:48;;;;;;;;;8.33;8.33;;;;;;;;5077494;28;45332;-74
2022/08/18 06:41:18;;;;;;;;;10.00;10.00;;;;;;;;5077241;27;46254;-75
2022/08/18 06:43:52;;;;;;;;;10.33;7.67;;;;;;;;5059575;28;45347;-73
2022/08/18 06:46:20;;;;;;;;;7.25;7.25;;;;;;;;5059473;28;45417;-74
2022/08/18 06:48:52;;;;;;;;;6.25;6.25;;;;;;;;5078082;27;45416;-73
2022/08/18 06:51:19;;;;;;;;;7.00;7.00;;;;;;;;5077264;27;46482;-75
2022/08/18 06:53:49;;;;;;;;;13.33;7.67;;;;;;;;5077282;27;45470;-74
2022/08/18 06:56:19;;;;;;;;;8.33;8.33;;;;;;;;5077766;27;45289;-74
2022/08/18 06:58:45;;;;;;;;;10.00;8.50;;;;;;;;5077635;27;45434;-75
2022/08/18 07:01:10;;;;;;;;;8.00;7.25;;;;;;;;5077432;28;46084;-74
2022/08/18 07:03:35;;;;;;;;;7.75;7.00;;;;;;;;5077097;27;45720;-75
2022/08/18 07:06:03;;;;;;;;;7.00;7.00;;;;;;;;5077909;27;45382;-74
2022/08/18 07:08:28;;;;;;;;;8.00;7.25;;;;;;;;5076865;27;45419;-75
2022/08/18 07:10:53;;;;;;;;;7.00;7.00;;;;;;;;5077210;27;47675;-74
2022/08/18 07:13:27;;;;;;;;;8.00;6.33;;;;;;;;5077371;27;45318;-75
2022/08/18 07:15:53;;;;;;;;;7.00;7.00;;;;;;;;5077193;27;45308;-75
2022/08/18 07:18:23;;;;;;;;;6.00;6.00;;;;;;;;5077524;27;45366;-73
2022/08/18 07:20:52;;;;;;;;;7.00;7.00;;;;;;;;5077207;27;45436;-74
2022/08/18 07:23:20;;;;;;;;;6.00;6.00;;;;;;;;5077009;28;45285;-74
2022/08/18 07:25:49;;;;;;;;;6.50;6.50;;;;;;;;5077191;27;45446;-73
2022/08/18 07:28:35;;;;;;;;;6.00;6.00;;;;;;;;5077217;28;45473;-73
2022/08/18 07:31:10;;;;;;;;;6.67;5.00;;;;;;;;5076701;27;47071;-74
2022/08/18 07:33:36;;;;;;;;;5.67;5.67;;;;;;;;5076823;27;45430;-75
2022/08/18 07:36:05;;;;;;;;;6.00;6.00;;;;;;;;5075616;27;45363;-74
2022/08/18 07:38:34;;;;;;;;;6.00;6.00;;;;;;;;5077094;27;45377;-74
2022/08/18 07:41:13;;;;;;;;;5.00;5.00;;;;;;;;5076779;27;47238;-75
2022/08/18 07:43:44;;;;;;;;;5.67;5.67;;;;;;;;5076807;28;45406;-75
2022/08/18 07:46:16;;;;;;;;;8.50;6.50;;;;;;;;5076671;27;45312;-74
2022/08/18 07:48:41;;;;;;;;;8.33;6.67;;;;;;;;5076896;27;45516;-74
2022/08/18 07:51:19;;;;;;;;;7.33;7.33;;;;;;;;5076542;27;46144;-75
2022/08/18 07:53:53;;;;;;;;;6.33;6.00;;;;;;;;5076319;27;45410;-75
2022/08/18 07:56:27;;;;;;;;;3.33;3.33;;;;;;;;5076660;27;45301;-75
2022/08/18 07:58:57;;;;;;;;;5.33;5.33;;;;;;;;5076303;27;45357;-75
2022/08/18 08:01:29;;;;;;;;;6.00;6.00;;;;;;;;5076444;27;45334;-74
2022/08/18 08:03:57;;;;;;;;;6.67;6.67;;;;;;;;5076485;27;45486;-74
2022/08/18 08:06:26;;;;;;;;;6.33;6.33;;;;;;;;5076579;28;45420;-73
2022/08/18 08:08:51;;;;;;;;;5.67;5.33;;;;;;;;5076280;27;45507;-74
2022/08/18 08:11:19;;;;;;;;;7.00;6.33;;;;;;;;5076107;27;47010;-74
2022/08/18 08:13:44;;;;;;;;;6.67;6.67;;;;;;;;5076485;27;45238;-75
2022/08/18 08:16:18;;;;;;;;;5.00;5.00;;;;;;;;5076958;27;45591;-75
2022/08/18 08:18:52;;;;;;;;;6.33;6.00;;;;;;;;5076581;27;45330;-75
2022/08/18 08:21:19;;;;;;;;;5.00;5.00;;;;;;;;5075991;27;45427;-75
2022/08/18 08:23:49;;;;;;;;;5.00;5.00;;;;;;;;5076544;28;45324;-75
2022/08/18 08:26:17;;;;;;;;;4.67;4.67;;;;;;;;5076413;28;45291;-74
2022/08/18 08:28:50;;;;;;;;;6.33;6.33;;;;;;;;5076377;27;45426;-73
2022/08/18 08:31:38;;;;;;;;;5.00;5.00;;;;;;;;5076230;27;45482;-74
2022/08/18 08:34:21;;;;;;;;;7.00;7.00;;;;;;;;5075674;27;45412;-75
2022/08/18 08:36:46;;;;;;;;;4.67;4.67;;;;;;;;5076095;27;45351;-75
2022/08/18 08:39:14;;;;;;;;;7.67;7.00;;;;;;;;5075847;27;45441;-75
2022/08/18 08:42:00;;;;;;;;;6.00;5.00;;;;;;;;5075530;27;46080;-74
2022/08/18 08:44:31;;;;;;;;;5.00;5.00;;;;;;;;5075986;27;45388;-74
2022/08/18 08:46:56;;;;;;;;;6.33;6.33;;;;;;;;5075695;27;45410;-73
2022/08/18 08:49:28;;;;;;;;;7.00;7.00;;;;;;;;5075691;28;45414;-74
2022/08/18 08:52:01;;;;;;;;;5.33;5.33;;;;;;;;5075614;27;46097;-75
2022/08/18 08:54:34;;;;;;;;;5.00;5.00;;;;;;;;5057061;28;45368;-74
2022/08/18 08:57:00;;;;;;;;;5.00;5.00;;;;;;;;5075819;27;45352;-74
2022/08/18 08:59:25;;;;;;;;;4.67;4.67;;;;;;;;5075821;27;45394;-75
2022/08/18 09:01:56;;;;;;;;;5.33;5.00;;;;;;;;5075258;27;46467;-74
2022/08/18 09:04:36;;;;;;;;;6.67;6.00;;;;;;;;5075138;27;45364;-74
2022/08/18 09:07:07;;;;;;;;;5.33;5.00;;;;;;;;5075547;27;45318;-73
2022/08/18 09:09:38;;;;;;;;;6.00;6.00;;;;;;;;5057262;28;45509;-75
2022/08/18 09:12:03;;;;;;;;;6.33;6.33;;;;;;;;5075221;27;46525;-74
2022/08/18 09:14:29;;;;;;;;;3.67;3.67;;;;;;;;5075483;27;45269;-74
2022/08/18 09:17:16;;;;;;;;;5.00;5.00;;;;;;;;5076025;27;45418;-75
2022/08/18 09:19:51;;;;;;;;;6.33;6.33;;;;;;;;5075655;28;45384;-74
2022/08/18 09:22:22;;;;;;;;;5.67;5.00;;;;;;;;5075330;28;47250;-74
2022/08/18 09:24:49;;;;;;;;;4.00;4.00;;;;;;;;5075533;27;45463;-75
2022/08/18 09:27:34;;;;;;;;;5.67;4.67;;;;;;;;5075492;28;45429;-73
2022/08/18 09:30:01;;;;;;;;;5.67;5.67;;;;;;;;5075510;28;45259;-74
2022/08/18 09:32:26;;;;;;;;;5.00;4.67;;;;;;;;5074623;28;45408;-74
2022/08/18 09:34:55;;;;;;;;;7.33;5.67;;;;;;;;5075375;28;45523;-74
2022/08/18 09:37:25;;;;;;;;;5.00;5.00;;;;;;;;5075159;27;45332;-75
2022/08/18 09:42:56;;;;;;;;;6.33;6.33;;;;;;;;5074971;27;45368;-75
2022/08/18 09:45:31;;;;;;;;;6.00;6.00;;;;;;;;5075038;28;45348;-75
2022/08/18 09:48:05;;;;;;;;;5.00;5.00;;;;;;;;5074960;27;45383;-75
2022/08/18 09:50:32;;;;;;;;;6.33;4.67;;;;;;;;5061266;28;45585;-74
2022/08/18 09:53:14;;;;;;;;;5.00;5.00;;;;;;;;5075007;27;47042;-75
2022/08/18 09:55:41;;;;;;;;;6.33;6.33;;;;;;;;5075223;28;45378;-74
2022/08/18 09:58:17;;;;;;;;;5.00;5.00;;;;;;;;5075196;28;45419;-74
2022/08/18 10:00:42;;;;;;;;;6.00;5.33;;;;;;;;5078346;27;45278;-74
2022/08/18 10:03:12;;;;;;;;;6.33;6.33;;;;;;;;5078289;27;46396;-75
2022/08/18 10:05:38;;;;;;;;;6.00;5.00;;;;;;;;5078326;27;45337;-75
2022/08/18 10:08:04;;;;;;;;;6.33;5.00;;;;;;;;5078380;27;45390;-74
2022/08/18 10:10:43;;;;;;;;;5.33;5.33;;;;;;;;5078474;27;45561;-75
2022/08/18 10:13:11;;;;;;;;;6.33;6.33;;;;;;;;5068935;27;47111;-74
2022/08/18 10:15:45;;;;;;;;;8.00;5.00;;;;;;;;5077819;27;45297;-75
2022/08/18 10:18:19;;;;;;;;;6.00;5.00;;;;;;;;5078614;27;45220;-74
2022/08/18 10:20:44;;;;;;;;;6.00;6.00;;;;;;;;5078277;27;45497;-75
2022/08/18 10:23:10;;;;;;;;;5.00;5.00;;;;;;;;5078294;28;46036;-74
2022/08/18 10:25:40;;;;;;;;;7.67;6.33;;;;;;;;5078148;27;46819;-75
2022/08/18 10:28:09;;;;;;;;;5.00;5.00;;;;;;;;5078494;27;45747;-74
2022/08/18 10:30:35;;;;;;;;;6.00;6.00;;;;;;;;5078002;27;45405;-74
2022/08/18 10:33:01;;;;;;;;;7.33;4.33;;;;;;;;5078226;27;47279;-74
2022/08/18 10:35:32;;;;;;;;;6.00;6.00;;;;;;;;5078391;27;45450;-74
2022/08/18 10:37:58;;;;;;;;;6.67;6.67;;;;;;;;5078129;27;45314;-74
2022/08/18 10:40:24;;;;;;;;;7.00;7.00;;;;;;;;5078162;27;45402;-74
2022/08/18 10:43:00;;;;;;;;;9.00;8.00;;;;;;;;5077447;27;46127;-75
2022/08/18 10:45:34;;;;;;;;;6.00;6.00;;;;;;;;5077002;27;45501;-74
2022/08/18 10:48:17;;;;;;;;;5.00;5.00;;;;;;;;5077588;28;45276;-75
2022/08/18 10:50:55;;;;;;;;;7.00;5.67;;;;;;;;5065892;27;45355;-75
2022/08/18 10:53:26;;;;;;;;;7.00;7.00;;;;;;;;5077732;27;47069;-75
2022/08/18 10:55:57;;;;;;;;;6.00;4.67;;;;;;;;5077947;27;45307;-75
2022/08/18 10:58:39;;;;;;;;;5.00;5.00;;;;;;;;5077683;27;45390;-74
2022/08/18 11:01:23;;;;;;;;;5.33;5.33;;;;;;;;5077084;27;45734;-75
2022/08/18 11:04:02;;;;;;;;;8.00;8.00;;;;;;;;5077191;27;47084;-74
2022/08/18 11:06:28;;;;;;;;;6.00;6.00;;;;;;;;5077522;27;45361;-74
2022/08/18 11:08:58;;;;;;;;;4.33;4.33;;;;;;;;5077294;27;45311;-74
2022/08/18 11:11:31;;;;;;;;;4.67;4.67;;;;;;;;5077545;27;45311;-74
2022/08/18 11:13:57;;;;;;;;;6.00;6.00;;;;;;;;5076727;27;46222;-74
2022/08/18 11:16:25;;;;;;;;;5.67;5.67;;;;;;;;5077572;28;45409;-74
2022/08/18 11:18:55;;;;;;;;;5.33;5.33;;;;;;;;5077505;27;45396;-74
2022/08/18 11:21:30;;;;;;;;;6.33;6.33;;;;;;;;5077107;27;45452;-74
2022/08/18 11:24:05;;;;;;;;;4.00;4.00;;;;;;;;5077096;27;46456;-74
2022/08/18 11:26:33;;;;;;;;;5.67;5.67;;;;;;;;5077386;27;45425;-75
2022/08/18 11:28:59;;;;;;;;;6.00;6.00;;;;;;;;5076548;27;45315;-74
2022/08/18 11:31:24;;;;;;;;;6.67;5.33;;;;;;;;5076692;28;45455;-74
2022/08/18 11:33:50;;;;;;;;;6.00;6.00;;;;;;;;5076968;28;46310;-74
2022/08/18 11:36:15;;;;;;;;;5.33;5.33;;;;;;;;5076797;27;45401;-74
2022/08/18 11:38:53;;;;;;;;;6.00;5.00;;;;;;;;5077356;27;45695;-75
2022/08/18 11:41:23;;;;;;;;;6.00;6.00;;;;;;;;5076706;27;45462;-74
2022/08/18 11:43:54;;;;;;;;;7.33;5.67;;;;;;;;5076713;27;46343;-73
2022/08/18 11:46:24;;;;;;;;;5.00;5.00;;;;;;;;5076499;28;46373;-74
2022/08/18 11:48:50;;;;;;;;;5.33;5.33;;;;;;;;5063358;27;45619;-74
2022/08/18 11:51:16;;;;;;;;;6.00;6.00;;;;;;;;5077159;27;45531;-74
2022/08/18 11:53:47;;;;;;;;;7.00;7.00;;;;;;;;5076607;27;46332;-74
2022/08/18 11:56:12;;;;;;;;;6.33;6.33;;;;;;;;5076731;28;45320;-74
2022/08/18 11:58:40;;;;;;;;;5.00;4.33;;;;;;;;5076332;27;45478;-74
2022/08/18 12:01:08;;;;;;;;;6.67;6.00;;;;;;;;5076522;27;45422;-74
2022/08/18 12:03:36;;;;;;;;;8.00;7.33;;;;;;;;5094626;27;46156;-74
2022/08/18 12:06:14;;;;;;;;;5.00;5.00;;;;;;;;5097008;27;45527;-75
2022/08/18 12:08:54;;;;;;;;;5.33;5.33;;;;;;;;5096791;27;45409;-73
2022/08/18 12:11:23;;;;;;;;;4.33;4.33;;;;;;;;5096719;27;45387;-74
2022/08/18 12:13:56;;;;;;;;;5.00;4.67;;;;;;;;5096146;27;45423;-75
2022/08/18 12:16:37;;;;;;;;;5.67;4.67;;;;;;;;5096790;27;45522;-74
2022/08/18 12:19:02;;;;;;;;;6.33;6.33;;;;;;;;5096589;27;45480;-74
2022/08/18 12:21:28;;;;;;;;;7.33;7.33;;;;;;;;5095998;27;45439;-74
2022/08/18 12:23:53;;;;;;;;;4.33;4.33;;;;;;;;5096654;27;45447;-75
2022/08/18 12:26:19;;;;;;;;;4.67;4.67;;;;;;;;5096156;27;45471;-73
2022/08/18 12:28:44;;;;;;;;;5.00;5.00;;;;;;;;5097093;27;45404;-74
2022/08/18 12:31:09;;;;;;;;;6.67;6.67;;;;;;;;5096505;27;45384;-74
2022/08/18 12:33:35;;;;;;;;;5.00;5.00;;;;;;;;5096710;27;45364;-74
2022/08/18 12:36:01;;;;;;;;;5.67;5.67;;;;;;;;5096556;27;45384;-74
2022/08/18 12:38:27;;;;;;;;;7.33;6.33;;;;;;;;5096658;27;45503;-75
2022/08/18 12:40:52;;;;;;;;;6.33;6.33;;;;;;;;5095635;27;45523;-75
2022/08/18 12:43:17;;;;;;;;;7.33;7.33;;;;;;;;5096542;27;45456;-74
2022/08/18 12:45:42;;;;;;;;;5.67;5.33;;;;;;;;5096181;27;45467;-74
2022/08/18 12:48:08;;;;;;;;;5.67;5.67;;;;;;;;5096177;27;45377;-74
2022/08/18 12:50:34;;;;;;;;;6.00;6.00;;;;;;;;5096198;27;45357;-75
2022/08/18 12:53:00;;;;;;;;;5.33;5.33;;;;;;;;5096083;27;46270;-74
2022/08/18 12:55:27;;;;;;;;;6.00;6.00;;;;;;;;5095895;27;45469;-74
2022/08/18 12:57:52;;;;;;;;;7.33;7.00;;;;;;;;5096398;27;45500;-74
2022/08/18 13:00:19;;;;;;;;;6.00;5.33;;;;;;;;5095896;27;45398;-74
2022/08/18 13:02:45;;;;;;;;;6.00;6.00;;;;;;;;5084143;27;46411;-74
2022/08/18 13:05:10;;;;;;;;;7.00;7.00;;;;;;;;5075375;27;45316;-75
2022/08/18 13:07:35;;;;;;;;;6.67;6.67;;;;;;;;5075936;27;45229;-74
2022/08/18 13:10:00;;;;;;;;;5.33;5.33;;;;;;;;5075641;28;45287;-75
2022/08/18 13:12:26;;;;;;;;;5.33;5.33;;;;;;;;5075387;27;45397;-74
2022/08/18 13:14:53;;;;;;;;;4.67;4.67;;;;;;;;5075677;27;45288;-74
2022/08/18 13:17:19;;;;;;;;;6.67;6.67;;;;;;;;5075799;27;45254;-74
2022/08/18 13:19:44;;;;;;;;;6.67;6.67;;;;;;;;5075855;27;45460;-74
2022/08/18 13:22:11;;;;;;;;;6.33;6.33;;;;;;;;5075120;27;46259;-75
2022/08/18 13:24:36;;;;;;;;;6.00;6.00;;;;;;;;5075281;27;45454;-74
2022/08/18 13:27:01;;;;;;;;;6.00;6.00;;;;;;;;5075563;28;45628;-74
2022/08/18 13:29:27;;;;;;;;;4.33;4.33;;;;;;;;5075330;28;45304;-75
2022/08/18 13:31:56;;;;;;;;;3.33;3.33;;;;;;;;5075504;27;45975;-75
2022/08/18 13:34:22;;;;;;;;;8.00;8.00;;;;;;;;5077056;27;45348;-74
2022/08/18 13:36:47;;;;;;;;;5.00;5.00;;;;;;;;5078871;27;45416;-74
2022/08/18 13:39:13;;;;;;;;;6.00;6.00;;;;;;;;5078978;27;45296;-74
2022/08/18 13:41:41;;;;;;;;;6.67;6.67;;;;;;;;5078907;27;46133;-75
2022/08/18 13:44:06;;;;;;;;;7.00;6.00;;;;;;;;5079045;27;45317;-74
2022/08/18 13:46:31;;;;;;;;;7.67;7.33;;;;;;;;5078600;27;45404;-74
2022/08/18 13:49:01;;;;;;;;;4.67;4.33;;;;;;;;5078930;27;45462;-75
2022/08/18 13:51:26;;;;;;;;;7.00;7.00;;;;;;;;5078547;27;46567;-74
2022/08/18 13:53:51;;;;;;;;;6.00;6.00;;;;;;;;5077801;27;45381;-75
2022/08/18 13:56:19;;;;;;;;;6.33;5.67;;;;;;;;5078450;27;45285;-74
2022/08/18 13:58:44;;;;;;;;;6.00;6.00;;;;;;;;5078841;27;45277;-74
2022/08/18 14:01:10;;;;;;;;;7.33;7.33;;;;;;;;5078252;27;45466;-74
2022/08/18 14:03:36;;;;;;;;;6.67;6.67;;;;;;;;5078396;27;45363;-74
2022/08/18 14:06:01;;;;;;;;;7.00;6.00;;;;;;;;5078545;27;45392;-74
2022/08/18 14:08:27;;;;;;;;;7.33;5.67;;;;;;;;5078236;27;45526;-74
2022/08/18 14:10:54;;;;;;;;;7.00;7.00;;;;;;;;5078051;27;46061;-73
2022/08/18 14:13:20;;;;;;;;;5.67;5.67;;;;;;;;5078039;27;45399;-74
2022/08/18 14:15:46;;;;;;;;;5.00;5.00;;;;;;;;5078193;27;45403;-75
2022/08/18 14:18:11;;;;;;;;;6.33;6.33;;;;;;;;5078504;27;45460;-75
2022/08/18 14:28:50;;;;;;;;;7.00;6.00;;;;;;;;5078453;27;45308;-75
2022/08/18 14:31:16;;;;;;;;;7.00;6.33;;;;;;;;5077901;27;46211;-75
2022/08/18 14:33:42;;;;;;;;;6.00;6.00;;;;;;;;5078005;27;45396;-75
2022/08/18 14:36:07;;;;;;;;;7.67;6.67;;;;;;;;5078220;27;45332;-75
2022/08/18 14:38:32;;;;;;;;;7.33;7.33;;;;;;;;5077692;27;45393;-75
2022/08/18 14:40:58;;;;;;;;;10.33;10.00;;;;;;;;5077674;27;45328;-75
2022/08/18 14:43:24;;;;;;;;;7.00;7.00;;;;;;;;5078035;28;45399;-75
2022/08/18 14:45:49;;;;;;;;;6.00;6.00;;;;;;;;5077436;27;45454;-74
2022/08/18 14:48:17;;;;;;;;;5.67;5.67;;;;;;;;5077860;27;45384;-74
2022/08/18 14:50:44;;;;;;;;;8.67;8.00;;;;;;;;5077476;27;47352;-74
2022/08/18 14:53:12;;;;;;;;;7.33;7.33;;;;;;;;5077401;27;45268;-74
2022/08/18 14:55:37;;;;;;;;;8.00;8.00;;;;;;;;5077874;27;45464;-75
2022/08/18 14:58:03;;;;;;;;;8.33;6.33;;;;;;;;5077779;27;45448;-74
2022/08/18 15:00:28;;;;;;;;;6.00;6.00;;;;;;;;5077116;27;46805;-74
2022/08/18 15:02:53;;;;;;;;;6.33;6.33;;;;;;;;5077637;27;45396;-75
2022/08/18 15:05:18;;;;;;;;;7.00;7.00;;;;;;;;5077102;27;45545;-75
2022/08/18 15:07:44;;;;;;;;;9.33;8.67;;;;;;;;5077783;27;45442;-74
2022/08/18 15:10:12;;;;;;;;;5.67;5.67;;;;;;;;5077228;28;46978;-74
2022/08/18 15:12:38;;;;;;;;;8.33;7.67;;;;;;;;5077164;27;45357;-74
2022/08/18 15:15:05;;;;;;;;;8.33;8.33;;;;;;;;5077442;27;45503;-75